Terminal Aerodrome Forecast
Issued by NWS

Home | Current Version | Previous Version | Text Only | Print | Product List | Glossary Off
Versions: 1 2 3 4 5 6 7 8 9 10 11 12 13 14 15

000
FTUS43 KFGF 181700
TAFBJI
TAF
KBJI 181728Z 1818/1918 14009KT P6SM OVC011
      TEMPO 1818/1822 3SM -SN
     FM190900 15004KT P6SM OVC008=

USA.gov is the U.S. government's official web portal to all federal, state and local government web resources and services.